Time;durP1;ratioP1;P1;durP2;ratioP2;P2;SDS_P1;SDS_P2;PMS_P1;PMS_P2;Temp;Humidity;BMP_temperature;BMP_pressure;BME280_temperature;BME280_humidity;BME280_pressure;Samples;Min_cycle;Max_cycle;Signal;HPM_P1;HPM_P2
2021/04/03 00:02:14;;;;;;;34.67;9.70;;;6.20;99.90;;;;;;5017848;28;20060;-64
2021/04/03 00:04:40;;;;;;;31.13;9.02;;;6.20;99.90;;;;;;5032208;28;20037;-62
2021/04/03 00:07:06;;;;;;;39.05;9.82;;;6.30;99.90;;;;;;5026459;28;20034;-62
2021/04/03 00:09:31;;;;;;;46.00;9.43;;;6.30;99.90;;;;;;5026806;28;20038;-64
2021/04/03 00:11:57;;;;;;;39.15;9.63;;;6.30;99.90;;;;;;5022138;28;20073;-65
2021/04/03 00:14:23;;;;;;;44.50;10.10;;;6.40;99.90;;;;;;5026011;28;20464;-63
2021/04/03 00:16:49;;;;;;;42.70;10.25;;;6.40;99.90;;;;;;5028482;28;20041;-62
2021/04/03 00:19:15;;;;;;;45.80;10.02;;;6.30;99.90;;;;;;5020310;28;20476;-62
2021/04/03 00:21:40;;;;;;;35.72;9.13;;;6.30;99.90;;;;;;5018699;28;20068;-64
2021/04/03 00:24:06;;;;;;;46.25;10.15;;;6.40;99.90;;;;;;5025357;28;20026;-64
2021/04/03 00:26:32;;;;;;;37.50;9.15;;;6.40;99.90;;;;;;5026284;28;20108;-61
2021/04/03 00:28:57;;;;;;;45.00;11.07;;;6.40;99.90;;;;;;5019036;28;20017;-62
2021/04/03 00:31:23;;;;;;;40.97;9.82;;;6.30;99.90;;;;;;5025896;28;20511;-63
2021/04/03 00:33:51;;;;;;;33.70;9.45;;;6.40;99.90;;;;;;5017502;28;20031;-65
2021/04/03 00:36:17;;;;;;;43.20;9.43;;;6.50;99.90;;;;;;5019646;28;20030;-63
2021/04/03 00:38:43;;;;;;;33.55;9.65;;;6.40;99.90;;;;;;5014940;28;20096;-63
2021/04/03 00:41:08;;;;;;;33.70;9.45;;;6.50;99.90;;;;;;5011237;28;20033;-63
2021/04/03 00:43:34;;;;;;;43.65;9.13;;;6.50;99.90;;;;;;5016518;28;20036;-63
2021/04/03 00:46:00;;;;;;;31.50;8.77;;;6.40;99.90;;;;;;5019278;28;20112;-62
2021/04/03 00:48:25;;;;;;;35.50;8.32;;;6.50;99.90;;;;;;5023820;28;20458;-62
2021/04/03 00:50:54;;;;;;;56.25;9.35;;;6.50;99.90;;;;;;5027445;28;20022;-64
2021/04/03 00:53:22;;;;;;;32.92;8.60;;;6.50;99.90;;;;;;5022100;28;20144;-64
2021/04/03 00:55:48;;;;;;;37.33;9.07;;;6.50;99.90;;;;;;5020666;28;20034;-64
2021/04/03 00:58:15;;;;;;;33.80;7.72;;;6.50;99.90;;;;;;5018461;28;20112;-63
2021/04/03 01:00:41;;;;;;;36.80;8.73;;;6.40;99.90;;;;;;5026364;28;20040;-62
2021/04/03 01:03:07;;;;;;;37.75;8.52;;;6.40;99.90;;;;;;5020514;28;20056;-63
2021/04/03 01:05:33;;;;;;;36.95;8.88;;;6.40;99.90;;;;;;5017844;28;20117;-64
2021/04/03 01:08:00;;;;;;;36.80;8.00;;;6.50;99.90;;;;;;5007593;28;20128;-63
2021/04/03 01:10:28;;;;;;;36.65;9.57;;;6.50;99.90;;;;;;5016288;28;20483;-64
2021/04/03 01:12:56;;;;;;;39.70;9.18;;;6.50;99.90;;;;;;5024845;28;20025;-64
2021/04/03 01:15:26;;;;;;;44.20;9.43;;;6.50;99.90;;;;;;5014002;28;20037;-65
2021/04/03 01:18:13;;;;;;;41.22;8.77;;;6.50;99.90;;;;;;5020843;28;20029;-64
2021/04/03 01:21:11;;;;;;;34.58;8.77;;;6.50;99.90;;;;;;5007581;28;20084;-65
2021/04/03 01:24:10;;;;;;;39.25;9.10;;;6.50;99.90;;;;;;5019543;28;20046;-63
2021/04/03 01:27:15;;;;;;;42.00;9.13;;;6.50;99.90;;;;;;5011351;28;20412;-65
2021/04/03 01:30:05;;;;;;;32.22;8.63;;;6.50;99.90;;;;;;5007488;28;20132;-66
2021/04/03 01:32:38;;;;;;;34.97;8.93;;;6.50;99.90;;;;;;5010188;28;20034;-63
2021/04/03 01:35:07;;;;;;;41.40;9.48;;;6.50;99.90;;;;;;5011504;28;20095;-63
2021/04/03 01:37:45;;;;;;;41.35;7.93;;;6.40;99.90;;;;;;5007574;28;20029;-65
2021/04/03 01:40:13;;;;;;;35.35;7.30;;;6.40;99.90;;;;;;5011754;28;20476;-64
2021/04/03 01:42:39;;;;;;;37.97;8.00;;;6.30;99.90;;;;;;5010911;28;20030;-64
2021/04/03 01:45:06;;;;;;;32.53;6.63;;;6.30;99.90;;;;;;5010112;28;20033;-64
2021/04/03 01:47:36;;;;;;;30.60;6.70;;;6.30;99.90;;;;;;5011540;28;20038;-65
2021/04/03 01:50:03;;;;;;;36.60;6.88;;;6.30;99.90;;;;;;5011080;28;20064;-63
2021/04/03 01:52:32;;;;;;;35.10;6.10;;;6.30;99.90;;;;;;5009272;28;20570;-63
2021/04/03 01:55:10;;;;;;;36.63;6.60;;;6.40;99.90;;;;;;5010001;28;20042;-64
2021/04/03 01:57:39;;;;;;;38.65;6.50;;;6.40;99.90;;;;;;5011472;28;20173;-66
2021/04/03 02:00:13;;;;;;;32.92;6.47;;;6.40;99.90;;;;;;5011198;28;20081;-64
2021/04/03 02:02:40;;;;;;;31.10;5.47;;;6.40;99.90;;;;;;5011331;28;20484;-65
2021/04/03 02:05:09;;;;;;;30.15;4.75;;;6.40;99.90;;;;;;5010844;28;20480;-64
2021/04/03 02:07:38;;;;;;;45.55;5.63;;;6.40;99.90;;;;;;5010703;28;20042;-64
2021/04/03 02:10:06;;;;;;;40.33;5.57;;;6.40;99.90;;;;;;5010805;28;20113;-63
2021/04/03 02:12:36;;;;;;;37.25;5.32;;;6.50;99.90;;;;;;5025876;28;20030;-63
2021/04/03 02:15:05;;;;;;;28.27;4.60;;;6.50;99.90;;;;;;5010588;28;20030;-64
2021/04/03 02:17:33;;;;;;;41.20;5.93;;;6.60;99.90;;;;;;5010254;28;20088;-63
2021/04/03 02:19:59;;;;;;;36.67;5.20;;;6.50;99.90;;;;;;5010653;28;20044;-64
2021/04/03 02:22:26;;;;;;;43.55;5.40;;;6.60;99.90;;;;;;5011148;28;20073;-64
2021/04/03 02:24:53;;;;;;;41.67;5.95;;;6.60;99.90;;;;;;5009414;28;20038;-63
2021/04/03 02:27:19;;;;;;;31.80;5.00;;;6.50;99.90;;;;;;4993026;28;20037;-66
2021/04/03 02:29:47;;;;;;;38.13;5.28;;;6.50;99.90;;;;;;5010101;28;20400;-64
2021/04/03 02:32:13;;;;;;;35.53;5.35;;;6.60;99.90;;;;;;5009788;28;20025;-64
2021/04/03 02:34:39;;;;;;;37.70;6.63;;;6.60;99.90;;;;;;5010848;28;20117;-63
2021/04/03 02:37:05;;;;;;;37.13;5.28;;;6.50;99.90;;;;;;4993487;28;20065;-64
2021/04/03 02:39:31;;;;;;;30.77;5.30;;;6.50;99.90;;;;;;5010725;28;20464;-64
2021/04/03 02:42:08;;;;;;;28.23;4.90;;;6.60;99.90;;;;;;5006252;28;20061;-64
2021/04/03 02:44:40;;;;;;;39.72;5.25;;;6.60;99.90;;;;;;5011098;28;20129;-63
2021/04/03 02:47:20;;;;;;;31.50;4.80;;;6.50;99.90;;;;;;5001791;28;20116;-64
2021/04/03 02:49:50;;;;;;;40.15;5.40;;;6.50;99.90;;;;;;5008654;28;20022;-65
2021/04/03 02:52:17;;;;;;;37.20;5.43;;;6.50;99.90;;;;;;5010537;28;20038;-64
2021/04/03 02:54:44;;;;;;;32.58;5.38;;;6.50;99.90;;;;;;5010323;28;20108;-64
2021/04/03 02:57:13;;;;;;;32.53;5.63;;;6.60;99.90;;;;;;4992825;28;20030;-63
2021/04/03 02:59:45;;;;;;;33.92;5.78;;;6.60;99.90;;;;;;5011006;28;20034;-63
2021/04/03 03:02:15;;;;;;;30.90;5.80;;;6.50;99.90;;;;;;5011001;28;20036;-65
2021/04/03 03:04:44;;;;;;;34.25;4.90;;;6.50;99.90;;;;;;5013440;28;20042;-65
2021/04/03 03:07:10;;;;;;;36.95;5.55;;;6.50;99.90;;;;;;5014079;28;20034;-64
2021/04/03 03:09:36;;;;;;;26.50;5.30;;;6.50;99.90;;;;;;5014192;28;20022;-64
2021/04/03 03:12:03;;;;;;;29.42;5.03;;;6.50;99.90;;;;;;5014159;28;20044;-64
2021/04/03 03:14:30;;;;;;;39.40;6.00;;;6.50;99.90;;;;;;5013906;28;20056;-64
2021/04/03 03:16:57;;;;;;;40.10;4.88;;;6.50;99.90;;;;;;5013719;28;20026;-63
2021/04/03 03:19:24;;;;;;;29.05;5.10;;;6.50;99.90;;;;;;5012588;28;20544;-65
2021/04/03 03:21:50;;;;;;;38.10;6.05;;;6.60;99.90;;;;;;5013539;28;20046;-64
2021/04/03 03:24:17;;;;;;;25.27;4.70;;;6.50;99.90;;;;;;5013472;28;20022;-63
2021/04/03 03:26:43;;;;;;;31.52;5.40;;;6.60;99.90;;;;;;5013637;28;20029;-63
2021/04/03 03:29:11;;;;;;;29.17;4.38;;;6.50;99.90;;;;;;4995930;28;20048;-65
2021/04/03 03:31:39;;;;;;;28.40;4.65;;;6.50;99.90;;;;;;5012262;28;20484;-63
2021/04/03 03:34:05;;;;;;;33.25;5.28;;;6.60;99.90;;;;;;5013811;28;20468;-65
2021/04/03 03:36:33;;;;;;;28.75;5.20;;;6.60;99.90;;;;;;5013596;28;20030;-64
2021/04/03 03:38:59;;;;;;;33.70;5.15;;;6.60;99.90;;;;;;5013769;28;20053;-64
2021/04/03 03:41:26;;;;;;;32.88;4.78;;;6.60;99.90;;;;;;5012690;28;20029;-63
2021/04/03 03:43:53;;;;;;;31.02;5.00;;;6.70;99.90;;;;;;5013858;28;20014;-65
2021/04/03 03:46:19;;;;;;;33.05;4.55;;;6.70;99.90;;;;;;5013354;28;20053;-64
2021/04/03 03:48:44;;;;;;;29.48;5.45;;;6.70;99.90;;;;;;5013098;28;20109;-63
2021/04/03 03:51:11;;;;;;;26.13;4.60;;;6.70;99.90;;;;;;5013501;28;20113;-63
2021/04/03 03:53:37;;;;;;;25.52;4.72;;;6.70;99.90;;;;;;5013555;28;20040;-63
2021/04/03 03:56:03;;;;;;;30.17;5.18;;;6.80;99.90;;;;;;5013694;28;20037;-64
2021/04/03 03:58:29;;;;;;;31.30;5.15;;;6.70;99.90;;;;;;5011912;28;20496;-65
2021/04/03 04:00:55;;;;;;;23.10;4.75;;;6.70;99.90;;;;;;5013502;28;20026;-65
2021/04/03 04:03:20;;;;;;;39.08;5.25;;;6.70;99.90;;;;;;5013593;28;20030;-64
2021/04/03 04:05:46;;;;;;;27.45;4.20;;;6.70;99.90;;;;;;5012899;28;20034;-65
2021/04/03 04:08:12;;;;;;;32.28;4.43;;;6.70;99.90;;;;;;5013060;28;20104;-64
2021/04/03 04:10:38;;;;;;;36.60;5.38;;;6.60;99.90;;;;;;5011833;28;20026;-64
2021/04/03 04:13:04;;;;;;;33.05;5.30;;;6.60;99.90;;;;;;5012913;28;20037;-64
2021/04/03 04:15:30;;;;;;;38.90;5.15;;;6.60;99.90;;;;;;5012944;28;20025;-63
2021/04/03 04:17:56;;;;;;;37.38;5.35;;;6.60;99.90;;;;;;5012527;28;20030;-63
2021/04/03 04:20:22;;;;;;;31.25;4.85;;;6.60;99.90;;;;;;5012653;28;20491;-65
2021/04/03 04:22:48;;;;;;;25.80;4.35;;;6.60;99.90;;;;;;5024484;28;20129;-61
2021/04/03 04:25:14;;;;;;;33.03;5.03;;;6.60;99.90;;;;;;5032545;28;20112;-64
2021/04/03 04:27:39;;;;;;;29.27;4.68;;;6.60;99.90;;;;;;5032039;28;20041;-62
2021/04/03 04:30:09;;;;;;;29.70;4.72;;;6.60;99.90;;;;;;5032620;28;20057;-64
2021/04/03 04:32:39;;;;;;;37.38;5.18;;;6.50;99.90;;;;;;5032393;28;20037;-63
2021/04/03 04:35:07;;;;;;;29.05;4.88;;;6.60;99.90;;;;;;5032828;28;20037;-62
2021/04/03 04:37:34;;;;;;;29.73;4.80;;;6.50;99.90;;;;;;5030765;28;20103;-62
2021/04/03 04:40:00;;;;;;;31.33;4.85;;;6.50;99.90;;;;;;5032212;28;20034;-63
2021/04/03 04:42:26;;;;;;;33.28;4.50;;;6.50;99.90;;;;;;5032533;28;20120;-63
2021/04/03 04:44:51;;;;;;;30.30;4.15;;;6.50;99.90;;;;;;5031888;28;20534;-62
2021/04/03 04:47:18;;;;;;;35.42;4.38;;;6.40;99.90;;;;;;5032634;28;20101;-64
2021/04/03 04:49:44;;;;;;;24.77;4.95;;;6.40;99.90;;;;;;5031454;28;20036;-62
2021/04/03 04:52:09;;;;;;;22.17;4.60;;;6.30;99.90;;;;;;5032160;28;20029;-61
2021/04/03 04:54:35;;;;;;;32.40;4.35;;;6.30;99.90;;;;;;5032048;28;20447;-62
2021/04/03 04:57:01;;;;;;;27.70;4.43;;;6.30;99.90;;;;;;5031411;28;20479;-66
2021/04/03 04:59:27;;;;;;;29.23;5.07;;;6.40;99.90;;;;;;5032052;28;20029;-64
2021/04/03 05:01:53;;;;;;;25.48;4.40;;;6.40;99.90;;;;;;5031467;28;20033;-65
2021/04/03 05:04:18;;;;;;;38.13;4.93;;;6.50;99.90;;;;;;5029859;28;20034;-63
2021/04/03 05:06:44;;;;;;;25.42;3.92;;;6.30;99.90;;;;;;5028244;28;20040;-62
2021/04/03 05:09:09;;;;;;;35.17;4.82;;;6.30;99.90;;;;;;5031830;28;20152;-62
2021/04/03 05:11:36;;;;;;;30.58;4.53;;;6.30;99.90;;;;;;5031631;28;20108;-62
2021/04/03 05:14:02;;;;;;;31.95;5.22;;;6.30;99.90;;;;;;5031764;28;20037;-63
2021/04/03 05:16:28;;;;;;;23.48;4.00;;;6.40;99.90;;;;;;5031633;28;20040;-65
2021/04/03 05:18:53;;;;;;;34.33;4.97;;;6.40;99.90;;;;;;5031462;28;20033;-62
2021/04/03 05:21:19;;;;;;;49.28;5.82;;;6.40;99.90;;;;;;5031716;28;20037;-62
2021/04/03 05:23:45;;;;;;;30.73;5.43;;;6.50;99.90;;;;;;5011620;28;20046;-64
2021/04/03 05:26:11;;;;;;;32.95;5.05;;;6.40;99.90;;;;;;5010818;28;20041;-63
2021/04/03 05:28:36;;;;;;;46.53;5.13;;;6.50;99.90;;;;;;5011627;28;20034;-64
2021/04/03 05:31:02;;;;;;;29.98;5.18;;;6.50;99.90;;;;;;5010382;28;20026;-63
2021/04/03 05:33:28;;;;;;;28.63;4.43;;;6.50;99.90;;;;;;5012093;28;20026;-61
2021/04/03 05:35:54;;;;;;;33.13;5.05;;;6.50;99.90;;;;;;5010917;28;20022;-63
2021/04/03 05:38:19;;;;;;;41.40;5.00;;;6.50;99.90;;;;;;5011777;28;20735;-64
2021/04/03 05:40:45;;;;;;;40.25;5.63;;;6.50;99.90;;;;;;5011539;28;20037;-61
2021/04/03 05:43:14;;;;;;;40.42;5.40;;;6.50;99.90;;;;;;5011698;28;20060;-63
2021/04/03 05:45:42;;;;;;;34.15;4.90;;;6.50;99.90;;;;;;5010846;28;20045;-62
2021/04/03 05:48:09;;;;;;;32.50;4.85;;;6.60;99.90;;;;;;5011285;28;20037;-62
2021/04/03 05:50:38;;;;;;;33.55;5.55;;;6.60;99.90;;;;;;5010885;28;20030;-63
2021/04/03 05:53:04;;;;;;;32.88;4.82;;;6.50;99.90;;;;;;4993842;28;20034;-63
2021/04/03 05:55:29;;;;;;;31.95;4.90;;;6.60;99.90;;;;;;5012892;28;20044;-63
2021/04/03 05:57:55;;;;;;;28.48;4.50;;;6.50;99.90;;;;;;5011345;28;20120;-62
2021/04/03 06:00:22;;;;;;;43.10;4.88;;;6.50;99.90;;;;;;5010362;28;20077;-64
2021/04/03 06:02:48;;;;;;;32.13;5.03;;;6.60;99.90;;;;;;5011347;28;20018;-62
2021/04/03 06:05:13;;;;;;;31.10;5.03;;;6.60;99.90;;;;;;5010198;28;20048;-63
2021/04/03 06:07:40;;;;;;;30.30;4.88;;;6.60;99.90;;;;;;5011367;28;20042;-64
2021/04/03 06:10:08;;;;;;;30.98;4.55;;;6.50;99.90;;;;;;5011322;28;20528;-62
2021/04/03 06:12:45;;;;;;;30.52;4.68;;;6.60;99.90;;;;;;5010851;28;20030;-64
2021/04/03 06:15:35;;;;;;;30.73;4.45;;;6.60;99.90;;;;;;5010007;28;20111;-62
2021/04/03 06:18:07;;;;;;;33.95;4.38;;;6.60;99.90;;;;;;4999111;28;20476;-63
2021/04/03 06:20:40;;;;;;;40.58;4.95;;;6.60;99.90;;;;;;5010804;28;20034;-62
2021/04/03 06:23:07;;;;;;;35.50;4.93;;;6.60;99.90;;;;;;5010068;28;20085;-61
2021/04/03 06:26:05;;;;;;;27.88;4.40;;;6.60;99.90;;;;;;5009214;28;20034;-64
2021/04/03 06:28:33;;;;;;;28.48;4.28;;;6.60;99.90;;;;;;4958349;28;20112;-64
2021/04/03 06:31:11;;;;;;;31.92;4.25;;;6.60;99.90;;;;;;5010960;28;20064;-64
2021/04/03 06:33:37;;;;;;;28.35;4.57;;;6.70;99.90;;;;;;5010664;28;20384;-62
2021/04/03 06:36:14;;;;;;;34.50;5.03;;;6.60;99.90;;;;;;5011499;28;20040;-62
2021/04/03 06:38:41;;;;;;;28.42;4.90;;;6.60;99.90;;;;;;5005385;28;20550;-64
2021/04/03 06:41:24;;;;;;;30.85;4.13;;;6.60;99.90;;;;;;5013354;28;20030;-63
2021/04/03 06:44:06;;;;;;;30.25;4.00;;;6.60;99.90;;;;;;5014659;28;20054;-64
2021/04/03 06:46:33;;;;;;;30.70;4.55;;;6.60;99.90;;;;;;5014283;28;20041;-61
2021/04/03 06:49:00;;;;;;;32.50;5.47;;;6.60;99.90;;;;;;5014777;28;20046;-62
2021/04/03 06:51:27;;;;;;;29.27;4.35;;;6.60;99.90;;;;;;5013857;28;20030;-62
2021/04/03 06:53:54;;;;;;;37.63;5.22;;;6.70;99.90;;;;;;5014389;28;20392;-63
2021/04/03 06:56:25;;;;;;;39.35;5.22;;;6.70;99.90;;;;;;5014029;28;20026;-62
2021/04/03 06:58:58;;;;;;;33.35;4.70;;;6.70;99.90;;;;;;5014422;28;20440;-64
2021/04/03 07:01:26;;;;;;;30.65;4.78;;;6.60;99.90;;;;;;5014323;28;20120;-65
2021/04/03 07:03:56;;;;;;;31.90;4.40;;;6.60;99.90;;;;;;5014370;28;20109;-63
2021/04/03 07:06:23;;;;;;;30.90;4.45;;;6.60;99.90;;;;;;5014098;28;20025;-65
2021/04/03 07:08:51;;;;;;;33.78;4.85;;;6.50;99.90;;;;;;5013294;28;20032;-62
2021/04/03 07:11:17;;;;;;;30.83;4.82;;;6.60;99.90;;;;;;5014115;28;20057;-63
2021/04/03 07:13:44;;;;;;;27.88;4.63;;;6.70;99.90;;;;;;5014348;28;20034;-64
2021/04/03 07:16:10;;;;;;;28.55;4.53;;;6.80;99.90;;;;;;5010020;28;20064;-65
2021/04/03 07:18:37;;;;;;;52.90;6.28;;;6.80;99.90;;;;;;5013504;28;20057;-64
2021/04/03 07:21:05;;;;;;;36.17;5.57;;;6.90;99.90;;;;;;5013369;28;20033;-64
2021/04/03 07:23:31;;;;;;;25.80;5.13;;;6.90;99.90;;;;;;5013183;28;21077;-63
2021/04/03 07:26:01;;;;;;;34.83;4.70;;;6.90;99.90;;;;;;5013297;28;20026;-64
2021/04/03 07:28:40;;;;;;;43.78;7.18;;;6.90;99.90;;;;;;5012542;28;20026;-62
2021/04/03 07:31:07;;;;;;;30.48;4.72;;;7.00;99.90;;;;;;5011655;28;20123;-63
2021/04/03 07:33:33;;;;;;;28.25;4.18;;;7.00;99.90;;;;;;5011405;28;20030;-64
2021/04/03 07:36:05;;;;;;;25.75;4.45;;;7.00;99.90;;;;;;5012027;28;20049;-64
2021/04/03 07:38:37;;;;;;;30.27;4.65;;;7.00;99.90;;;;;;5006933;28;20049;-64
2021/04/03 07:41:10;;;;;;;27.65;3.88;;;7.00;99.90;;;;;;5012797;28;20804;-65
2021/04/03 07:43:43;;;;;;;26.73;4.70;;;7.00;99.90;;;;;;5010305;28;20034;-63
2021/04/03 07:46:39;;;;;;;35.28;4.60;;;6.90;99.90;;;;;;5011477;28;20038;-62
2021/04/03 07:49:04;;;;;;;32.47;4.95;;;6.90;99.90;;;;;;5012060;28;20191;-62
2021/04/03 07:51:30;;;;;;;33.40;4.30;;;6.90;99.90;;;;;;5011482;28;20511;-64
2021/04/03 07:53:58;;;;;;;25.05;3.83;;;6.90;99.90;;;;;;5012889;28;20503;-63
2021/04/03 07:56:25;;;;;;;34.50;5.30;;;6.90;99.90;;;;;;5011085;28;20113;-63
2021/04/03 07:58:56;;;;;;;24.05;3.65;;;7.00;99.90;;;;;;4993520;28;20404;-63
2021/04/03 08:01:24;;;;;;;32.13;4.60;;;7.00;99.90;;;;;;5011790;28;20030;-63
2021/04/03 08:03:54;;;;;;;29.90;4.18;;;7.00;99.90;;;;;;5012071;28;20184;-64
2021/04/03 08:06:34;;;;;;;31.92;3.97;;;7.10;99.90;;;;;;5011667;28;20037;-64
2021/04/03 08:09:01;;;;;;;36.28;5.50;;;7.10;99.90;;;;;;5009496;28;20345;-64
2021/04/03 08:11:28;;;;;;;33.35;4.65;;;7.10;99.90;;;;;;5011900;28;20108;-62
2021/04/03 08:13:55;;;;;;;31.27;4.53;;;7.10;99.90;;;;;;5011357;28;20073;-64
2021/04/03 08:16:25;;;;;;;23.60;3.92;;;7.10;99.90;;;;;;5012070;28;20069;-63
2021/04/03 08:18:53;;;;;;;38.85;5.15;;;7.10;99.90;;;;;;5010737;28;20037;-64
2021/04/03 08:21:20;;;;;;;33.67;4.50;;;7.10;99.90;;;;;;5012144;28;20385;-61
2021/04/03 08:23:48;;;;;;;30.60;4.63;;;7.20;99.90;;;;;;5031128;28;20139;-60
2021/04/03 08:26:15;;;;;;;24.15;4.35;;;7.10;99.90;;;;;;5030182;28;20044;-60
2021/04/03 08:28:41;;;;;;;38.97;6.45;;;7.20;99.90;;;;;;5031169;28;20045;-62
2021/04/03 08:31:27;;;;;;;36.35;5.13;;;7.20;99.90;;;;;;5030879;28;20044;-61
2021/04/03 08:33:58;;;;;;;29.73;4.35;;;7.30;99.90;;;;;;5029458;28;20491;-61
2021/04/03 08:36:30;;;;;;;34.45;4.57;;;7.30;99.90;;;;;;5012468;28;20037;-60
2021/04/03 08:39:00;;;;;;;40.85;5.07;;;7.30;99.90;;;;;;5027494;28;20479;-61
2021/04/03 08:41:27;;;;;;;46.63;5.05;;;7.30;99.90;;;;;;5030264;28;20040;-62
2021/04/03 08:43:54;;;;;;;28.80;6.25;;;7.40;99.90;;;;;;5030682;28;20116;-61
2021/04/03 08:46:21;;;;;;;27.58;4.95;;;7.40;99.90;;;;;;5013447;28;20479;-61
2021/04/03 08:48:57;;;;;;;29.55;4.10;;;7.50;99.90;;;;;;5030067;28;20059;-61
2021/04/03 08:51:24;;;;;;;33.25;4.80;;;7.50;99.90;;;;;;5027028;28;20029;-61
2021/04/03 08:53:55;;;;;;;28.38;4.43;;;7.60;99.90;;;;;;5030595;28;20038;-60
2021/04/03 08:56:35;;;;;;;33.88;4.43;;;7.60;99.90;;;;;;5027913;28;21647;-60
2021/04/03 08:59:07;;;;;;;32.22;5.28;;;7.60;99.90;;;;;;5030531;28;20060;-59
2021/04/03 09:01:37;;;;;;;31.25;4.47;;;7.60;99.90;;;;;;5030352;28;20025;-62
2021/04/03 09:04:08;;;;;;;62.85;8.07;;;7.70;99.90;;;;;;5030293;28;20107;-61
2021/04/03 09:06:49;;;;;;;31.85;4.15;;;7.80;99.90;;;;;;5042253;28;20037;-62
2021/04/03 09:09:15;;;;;;;29.52;4.60;;;7.90;99.90;;;;;;5039304;28;20032;-61
2021/04/03 09:11:51;;;;;;;28.40;5.30;;;8.00;99.90;;;;;;5033491;28;20112;-61
2021/04/03 09:14:25;;;;;;;26.92;3.65;;;8.00;99.90;;;;;;5029378;28;20083;-61
2021/04/03 09:16:51;;;;;;;26.58;4.57;;;7.90;99.90;;;;;;5031379;28;20033;-60
2021/04/03 09:19:25;;;;;;;33.40;5.13;;;7.90;99.90;;;;;;5030265;28;20029;-62
2021/04/03 09:22:00;;;;;;;33.45;4.47;;;7.90;99.90;;;;;;5087993;27;20383;-60
2021/04/03 09:24:39;;;;;;;36.55;5.40;;;7.90;99.90;;;;;;5068506;28;20127;-61
2021/04/03 09:27:10;;;;;;;27.98;4.78;;;8.00;99.90;;;;;;5072389;28;20037;-61
2021/04/03 09:29:37;;;;;;;32.20;4.65;;;8.00;99.90;;;;;;5071754;28;20024;-60
2021/04/03 09:32:07;;;;;;;31.10;4.88;;;8.10;99.90;;;;;;5074321;28;20086;-61
2021/04/03 09:34:34;;;;;;;25.77;4.32;;;8.10;99.90;;;;;;5076996;28;20021;-61
2021/04/03 09:37:21;;;;;;;37.35;7.00;;;8.10;99.90;;;;;;5074958;28;20657;-60
2021/04/03 09:39:46;;;;;;;26.27;4.35;;;8.20;99.90;;;;;;5076405;28;20028;-60
2021/04/03 09:42:17;;;;;;;29.20;5.05;;;8.20;99.90;;;;;;5072953;28;20399;-61
2021/04/03 09:44:44;;;;;;;31.70;5.35;;;8.20;99.90;;;;;;5075771;28;20818;-60
2021/04/03 09:47:10;;;;;;;29.38;4.55;;;8.20;99.90;;;;;;5068369;28;20028;-60
2021/04/03 09:49:38;;;;;;;26.75;4.72;;;8.30;99.90;;;;;;5070918;28;20102;-60
2021/04/03 09:52:04;;;;;;;28.50;4.95;;;8.40;99.90;;;;;;5062888;28;20056;-61
2021/04/03 09:54:31;;;;;;;37.47;5.70;;;8.30;99.90;;;;;;5065719;28;20037;-60
2021/04/03 09:56:57;;;;;;;28.83;4.55;;;8.40;99.90;;;;;;5065514;28;20041;-60
2021/04/03 09:59:23;;;;;;;35.08;4.53;;;8.50;99.90;;;;;;5063386;28;20095;-60
2021/04/03 10:01:49;;;;;;;29.10;4.57;;;8.50;99.90;;;;;;5066636;28;20025;-60
2021/04/03 10:04:14;;;;;;;28.85;4.68;;;8.30;99.90;;;;;;5066110;28;20028;-61
2021/04/03 10:06:40;;;;;;;28.55;5.15;;;8.30;99.90;;;;;;5065029;28;20082;-61
2021/04/03 10:09:06;;;;;;;29.48;4.57;;;8.40;99.90;;;;;;5065077;28;20120;-60
2021/04/03 10:11:32;;;;;;;38.70;5.85;;;8.40;99.90;;;;;;5066459;28;20119;-61
2021/04/03 10:13:58;;;;;;;27.40;3.90;;;8.50;99.90;;;;;;5067180;28;20074;-60
2021/04/03 10:16:24;;;;;;;28.10;4.50;;;8.40;99.90;;;;;;5065985;28;20057;-60
2021/04/03 10:18:49;;;;;;;30.17;5.63;;;8.40;99.90;;;;;;5066859;28;20036;-61
2021/04/03 10:21:15;;;;;;;36.17;5.00;;;8.50;99.90;;;;;;5066338;28;20063;-61
2021/04/03 10:23:41;;;;;;;23.10;4.40;;;8.70;99.90;;;;;;5066984;28;20128;-60
2021/04/03 10:26:07;;;;;;;31.52;4.25;;;8.60;99.90;;;;;;5066064;28;20454;-60
2021/04/03 10:28:33;;;;;;;25.48;4.75;;;8.70;99.90;;;;;;5063860;28;20041;-60
2021/04/03 10:30:59;;;;;;;26.95;4.55;;;8.70;99.90;;;;;;5064300;28;20025;-61
2021/04/03 10:33:25;;;;;;;25.90;5.15;;;8.70;99.90;;;;;;5055289;28;20036;-60
2021/04/03 10:35:50;;;;;;;22.48;4.13;;;8.70;99.90;;;;;;5053278;28;20119;-61
2021/04/03 10:38:16;;;;;;;25.70;4.72;;;8.80;99.90;;;;;;5052490;28;20431;-59
2021/04/03 10:40:42;;;;;;;36.63;4.60;;;8.80;99.90;;;;;;5053145;28;20025;-60
2021/04/03 10:43:07;;;;;;;39.33;7.82;;;8.80;99.90;;;;;;5051534;28;20037;-60
2021/04/03 10:45:33;;;;;;;32.42;4.88;;;8.90;99.90;;;;;;5052889;28;20041;-61
2021/04/03 10:47:59;;;;;;;25.92;4.78;;;9.10;99.90;;;;;;5049958;28;20116;-61
2021/04/03 10:50:25;;;;;;;21.60;3.95;;;9.10;99.90;;;;;;5052605;28;20033;-60
2021/04/03 10:52:51;;;;;;;20.90;3.95;;;9.20;99.90;;;;;;5052863;28;20778;-60
2021/04/03 10:55:17;;;;;;;28.13;3.88;;;9.10;99.90;;;;;;5046249;28;20033;-60
2021/04/03 10:57:42;;;;;;;28.63;5.22;;;9.10;99.90;;;;;;5044051;28;20051;-60
2021/04/03 11:00:09;;;;;;;20.98;3.60;;;9.10;99.90;;;;;;5047226;28;20063;-60
2021/04/03 11:02:35;;;;;;;20.05;4.25;;;9.00;99.90;;;;;;5048878;28;20215;-60
2021/04/03 11:05:00;;;;;;;20.92;4.05;;;9.10;99.90;;;;;;5052424;28;20550;-60
2021/04/03 11:07:26;;;;;;;25.45;4.13;;;9.10;99.90;;;;;;5048464;28;20033;-60
2021/04/03 11:09:52;;;;;;;34.88;4.80;;;9.20;99.90;;;;;;5048484;28;20479;-59
2021/04/03 11:12:18;;;;;;;23.92;4.13;;;9.20;99.90;;;;;;5048533;28;20043;-60
2021/04/03 11:14:45;;;;;;;20.23;3.72;;;9.40;99.90;;;;;;5047753;28;20398;-60
2021/04/03 11:17:11;;;;;;;16.38;3.88;;;9.40;99.90;;;;;;5048382;28;20035;-60
2021/04/03 11:19:37;;;;;;;25.65;3.90;;;9.40;99.90;;;;;;5048496;28;20344;-59
2021/04/03 11:22:03;;;;;;;31.20;4.55;;;9.40;99.90;;;;;;5051862;28;20029;-60
2021/04/03 11:24:29;;;;;;;32.10;5.03;;;9.20;99.90;;;;;;5050868;28;20082;-60
2021/04/03 11:26:55;;;;;;;38.72;4.45;;;9.30;99.90;;;;;;5052312;28;20032;-59
2021/04/03 11:29:21;;;;;;;28.30;4.80;;;9.30;99.90;;;;;;5052548;28;20381;-59
2021/04/03 11:31:47;;;;;;;27.75;4.28;;;9.30;99.90;;;;;;5051434;28;20029;-59
2021/04/03 11:34:13;;;;;;;25.38;3.75;;;9.30;99.90;;;;;;5050056;28;20534;-59
2021/04/03 11:36:39;;;;;;;25.30;4.22;;;9.30;99.90;;;;;;5052167;28;20112;-60
2021/04/03 11:39:07;;;;;;;21.92;4.00;;;9.40;99.90;;;;;;5051862;28;20344;-60
2021/04/03 11:41:33;;;;;;;25.17;4.10;;;9.50;99.90;;;;;;5051509;28;20029;-60
2021/04/03 11:43:59;;;;;;;30.63;3.97;;;9.40;99.90;;;;;;5049585;28;20506;-60
2021/04/03 11:46:24;;;;;;;24.08;4.40;;;9.50;99.90;;;;;;5049827;28;20029;-62
2021/04/03 11:48:50;;;;;;;34.90;5.07;;;9.50;99.90;;;;;;5050264;28;20035;-60
2021/04/03 11:51:16;;;;;;;43.40;5.30;;;9.50;99.90;;;;;;5050784;28;20029;-61
2021/04/03 11:53:42;;;;;;;36.17;5.32;;;9.60;99.90;;;;;;5049828;28;20043;-59
2021/04/03 11:56:08;;;;;;;33.35;8.73;;;9.70;99.90;;;;;;5048953;28;20036;-60
2021/04/03 11:58:34;;;;;;;33.75;6.82;;;9.70;99.90;;;;;;5051451;28;20029;-61
2021/04/03 12:01:00;;;;;;;23.38;5.32;;;9.80;99.90;;;;;;5050278;28;20061;-60
2021/04/03 12:03:26;;;;;;;24.52;4.20;;;9.70;99.90;;;;;;5051401;28;20850;-61
2021/04/03 12:05:51;;;;;;;22.08;3.95;;;9.60;99.90;;;;;;5050861;28;20047;-61
2021/04/03 12:08:17;;;;;;;33.65;5.07;;;9.40;99.90;;;;;;5051029;28;20391;-60
2021/04/03 12:10:43;;;;;;;36.38;4.97;;;9.30;99.90;;;;;;5061099;28;20028;-62
2021/04/03 12:13:09;;;;;;;35.92;5.45;;;9.50;99.90;;;;;;5052705;28;20039;-61
2021/04/03 12:15:38;;;;;;;39.83;5.15;;;9.50;99.90;;;;;;5054711;28;20037;-61
2021/04/03 12:18:04;;;;;;;28.45;4.45;;;9.70;99.90;;;;;;5051744;28;20139;-60
2021/04/03 12:20:30;;;;;;;24.75;4.20;;;9.70;99.90;;;;;;5049470;28;20143;-61
2021/04/03 12:22:55;;;;;;;29.38;4.68;;;9.80;99.90;;;;;;5049704;28;20115;-61
2021/04/03 12:25:21;;;;;;;34.55;7.30;;;9.80;99.90;;;;;;5050306;28;20040;-61
2021/04/03 12:27:47;;;;;;;32.38;5.95;;;9.90;99.90;;;;;;5050257;28;20501;-61
2021/04/03 12:30:13;;;;;;;30.08;5.00;;;9.80;99.90;;;;;;5050024;28;20044;-60
2021/04/03 12:32:39;;;;;;;31.52;4.45;;;9.90;99.90;;;;;;5050007;28;20517;-60
2021/04/03 12:35:05;;;;;;;34.20;5.05;;;9.80;99.90;;;;;;5050773;28;20025;-60
2021/04/03 12:37:31;;;;;;;26.42;4.55;;;9.70;99.90;;;;;;5051204;28;20851;-60
2021/04/03 12:39:57;;;;;;;26.17;4.60;;;9.70;99.90;;;;;;5050514;28;20128;-60
2021/04/03 12:42:23;;;;;;;29.08;4.63;;;9.70;99.90;;;;;;5049115;28;20096;-61
2021/04/03 12:44:48;;;;;;;28.65;4.50;;;9.70;99.90;;;;;;5050643;28;20147;-60
2021/04/03 12:47:14;;;;;;;35.92;4.32;;;9.80;99.90;;;;;;5051248;28;20071;-61
2021/04/03 12:49:40;;;;;;;25.65;4.45;;;9.80;99.90;;;;;;5049290;28;20078;-60
2021/04/03 12:52:06;;;;;;;21.92;3.92;;;9.70;99.90;;;;;;5050316;28;20044;-60